Athabasca, Canada
Current Conditions -  °F | °C
As of 4:00 AM on Saturday 25 Oct 2014 (Local Time) from CYZH Reporting Station
Clear Clear  
Wind Chill: 30°   Ceiling: Unl
Heat Index: 34°   Visibility: 9mi
Dew Point: 30°   Wind: 5mph
Humidity: 87%   Direction: 270°W
Pressure: 29.97"   Gusts: NA
Location:  54.72°N, 113.27°W
Report Text: CYZH 251000Z AUTO 27004KT 9SM CLR 01/M01 A2997 RMK SLP172
Loading
Personal Weather Stations






























Interactive Weather Map
Tropical Storm Tracking
New forecast layout! Learn more

10-Day Weather Forecast

Advertisements
Track Severe Weather on mobile